sensor_id;sensor_type;location;lat;lon;timestamp;P1;durP1;ratioP1;P2;durP2;ratioP2
74223;SDS011;62585;49.706;18.216;2024-01-07T00:01:48;13.10;;;7.15;;
74223;SDS011;62585;49.706;18.216;2024-01-07T00:04:17;12.95;;;7.35;;
74223;SDS011;62585;49.706;18.216;2024-01-07T00:06:45;13.13;;;6.93;;
74223;SDS011;62585;49.706;18.216;2024-01-07T00:09:11;15.30;;;6.43;;
74223;SDS011;62585;49.706;18.216;2024-01-07T00:11:38;13.23;;;7.47;;
74223;SDS011;62585;49.706;18.216;2024-01-07T00:14:04;14.23;;;7.90;;
74223;SDS011;62585;49.706;18.216;2024-01-07T00:16:30;13.77;;;8.27;;
74223;SDS011;62585;49.706;18.216;2024-01-07T00:18:56;19.42;;;8.95;;
74223;SDS011;62585;49.706;18.216;2024-01-07T00:21:22;16.75;;;8.25;;
74223;SDS011;62585;49.706;18.216;2024-01-07T00:23:49;14.30;;;8.18;;
74223;SDS011;62585;49.706;18.216;2024-01-07T00:26:15;15.02;;;8.15;;
74223;SDS011;62585;49.706;18.216;2024-01-07T00:28:41;17.20;;;8.95;;
74223;SDS011;62585;49.706;18.216;2024-01-07T00:31:07;15.45;;;7.47;;
74223;SDS011;62585;49.706;18.216;2024-01-07T00:33:34;17.42;;;8.45;;
74223;SDS011;62585;49.706;18.216;2024-01-07T00:36:03;17.73;;;7.88;;
74223;SDS011;62585;49.706;18.216;2024-01-07T00:38:30;13.00;;;8.07;;
74223;SDS011;62585;49.706;18.216;2024-01-07T00:40:56;16.23;;;8.75;;
74223;SDS011;62585;49.706;18.216;2024-01-07T00:43:21;17.98;;;7.78;;
74223;SDS011;62585;49.706;18.216;2024-01-07T00:45:47;14.70;;;7.53;;
74223;SDS011;62585;49.706;18.216;2024-01-07T00:48:13;15.82;;;8.38;;
74223;SDS011;62585;49.706;18.216;2024-01-07T00:50:40;17.75;;;8.43;;
74223;SDS011;62585;49.706;18.216;2024-01-07T00:53:06;17.63;;;9.25;;
74223;SDS011;62585;49.706;18.216;2024-01-07T00:55:32;15.85;;;8.65;;
74223;SDS011;62585;49.706;18.216;2024-01-07T00:57:58;15.63;;;7.63;;
74223;SDS011;62585;49.706;18.216;2024-01-07T01:00:24;21.00;;;8.35;;
74223;SDS011;62585;49.706;18.216;2024-01-07T01:02:50;15.25;;;7.95;;
74223;SDS011;62585;49.706;18.216;2024-01-07T01:05:16;14.13;;;6.95;;
74223;SDS011;62585;49.706;18.216;2024-01-07T01:07:41;15.55;;;8.85;;
74223;SDS011;62585;49.706;18.216;2024-01-07T01:10:07;18.08;;;7.97;;
74223;SDS011;62585;49.706;18.216;2024-01-07T01:12:34;17.92;;;8.48;;
74223;SDS011;62585;49.706;18.216;2024-01-07T01:15:00;17.13;;;8.60;;
74223;SDS011;62585;49.706;18.216;2024-01-07T01:17:26;19.92;;;9.25;;
74223;SDS011;62585;49.706;18.216;2024-01-07T01:19:52;16.13;;;9.15;;
74223;SDS011;62585;49.706;18.216;2024-01-07T01:22:17;19.20;;;9.45;;
74223;SDS011;62585;49.706;18.216;2024-01-07T01:24:43;16.40;;;8.20;;
74223;SDS011;62585;49.706;18.216;2024-01-07T01:27:11;19.58;;;8.20;;
74223;SDS011;62585;49.706;18.216;2024-01-07T01:29:38;19.05;;;9.93;;
74223;SDS011;62585;49.706;18.216;2024-01-07T01:32:05;20.38;;;7.75;;
74223;SDS011;62585;49.706;18.216;2024-01-07T01:34:31;16.45;;;8.38;;
74223;SDS011;62585;49.706;18.216;2024-01-07T01:36:57;17.40;;;9.00;;
74223;SDS011;62585;49.706;18.216;2024-01-07T01:39:23;18.90;;;10.77;;
74223;SDS011;62585;49.706;18.216;2024-01-07T01:41:52;12.60;;;7.88;;
74223;SDS011;62585;49.706;18.216;2024-01-07T01:44:18;18.15;;;9.90;;
74223;SDS011;62585;49.706;18.216;2024-01-07T01:46:44;19.23;;;9.48;;
74223;SDS011;62585;49.706;18.216;2024-01-07T01:49:12;21.13;;;9.27;;
74223;SDS011;62585;49.706;18.216;2024-01-07T01:51:38;13.60;;;7.65;;
74223;SDS011;62585;49.706;18.216;2024-01-07T01:54:04;13.90;;;8.10;;
74223;SDS011;62585;49.706;18.216;2024-01-07T01:56:30;17.42;;;8.70;;
74223;SDS011;62585;49.706;18.216;2024-01-07T01:58:57;12.82;;;6.15;;
74223;SDS011;62585;49.706;18.216;2024-01-07T02:01:23;17.58;;;8.00;;
74223;SDS011;62585;49.706;18.216;2024-01-07T02:03:49;15.15;;;8.80;;
74223;SDS011;62585;49.706;18.216;2024-01-07T02:06:16;16.02;;;7.82;;
74223;SDS011;62585;49.706;18.216;2024-01-07T02:08:43;21.85;;;10.18;;
74223;SDS011;62585;49.706;18.216;2024-01-07T02:13:38;18.65;;;8.05;;
74223;SDS011;62585;49.706;18.216;2024-01-07T02:16:04;15.20;;;8.38;;
74223;SDS011;62585;49.706;18.216;2024-01-07T02:18:30;17.92;;;9.70;;
74223;SDS011;62585;49.706;18.216;2024-01-07T02:20:56;16.92;;;8.38;;
74223;SDS011;62585;49.706;18.216;2024-01-07T02:23:22;18.63;;;8.90;;
74223;SDS011;62585;49.706;18.216;2024-01-07T02:25:48;15.48;;;7.72;;
74223;SDS011;62585;49.706;18.216;2024-01-07T02:28:13;21.60;;;8.57;;
74223;SDS011;62585;49.706;18.216;2024-01-07T02:30:39;17.70;;;8.70;;
74223;SDS011;62585;49.706;18.216;2024-01-07T02:33:05;13.52;;;8.18;;
74223;SDS011;62585;49.706;18.216;2024-01-07T02:35:31;14.35;;;7.57;;
74223;SDS011;62585;49.706;18.216;2024-01-07T02:37:57;15.98;;;8.60;;
74223;SDS011;62585;49.706;18.216;2024-01-07T02:40:23;14.80;;;8.13;;
74223;SDS011;62585;49.706;18.216;2024-01-07T02:42:48;17.98;;;8.75;;
74223;SDS011;62585;49.706;18.216;2024-01-07T02:45:14;11.70;;;7.68;;
74223;SDS011;62585;49.706;18.216;2024-01-07T02:47:40;13.75;;;8.00;;
74223;SDS011;62585;49.706;18.216;2024-01-07T02:50:06;15.10;;;7.97;;
74223;SDS011;62585;49.706;18.216;2024-01-07T02:52:32;14.43;;;7.47;;
74223;SDS011;62585;49.706;18.216;2024-01-07T02:54:58;14.02;;;7.60;;
74223;SDS011;62585;49.706;18.216;2024-01-07T02:57:27;17.75;;;9.25;;
74223;SDS011;62585;49.706;18.216;2024-01-07T02:59:53;16.35;;;8.52;;
74223;SDS011;62585;49.706;18.216;2024-01-07T03:02:18;14.27;;;7.72;;
74223;SDS011;62585;49.706;18.216;2024-01-07T03:04:44;15.77;;;7.97;;
74223;SDS011;62585;49.706;18.216;2024-01-07T03:07:10;17.02;;;8.13;;
74223;SDS011;62585;49.706;18.216;2024-01-07T03:09:36;14.23;;;8.40;;
74223;SDS011;62585;49.706;18.216;2024-01-07T03:12:02;13.30;;;6.97;;
74223;SDS011;62585;49.706;18.216;2024-01-07T03:14:28;12.80;;;7.47;;
74223;SDS011;62585;49.706;18.216;2024-01-07T03:16:53;14.82;;;7.32;;
74223;SDS011;62585;49.706;18.216;2024-01-07T03:19:19;13.65;;;7.47;;
74223;SDS011;62585;49.706;18.216;2024-01-07T03:21:47;13.30;;;7.30;;
74223;SDS011;62585;49.706;18.216;2024-01-07T03:24:14;12.82;;;6.63;;
74223;SDS011;62585;49.706;18.216;2024-01-07T03:26:39;16.38;;;7.63;;
74223;SDS011;62585;49.706;18.216;2024-01-07T03:29:05;15.68;;;6.82;;
74223;SDS011;62585;49.706;18.216;2024-01-07T03:31:31;16.10;;;7.38;;
74223;SDS011;62585;49.706;18.216;2024-01-07T03:33:57;9.85;;;6.53;;
74223;SDS011;62585;49.706;18.216;2024-01-07T03:36:23;17.52;;;8.18;;
74223;SDS011;62585;49.706;18.216;2024-01-07T03:38:49;14.77;;;7.13;;
74223;SDS011;62585;49.706;18.216;2024-01-07T03:41:18;15.52;;;7.90;;
74223;SDS011;62585;49.706;18.216;2024-01-07T03:43:48;12.63;;;6.10;;
74223;SDS011;62585;49.706;18.216;2024-01-07T03:46:14;12.90;;;7.28;;
74223;SDS011;62585;49.706;18.216;2024-01-07T03:48:41;10.88;;;6.47;;
74223;SDS011;62585;49.706;18.216;2024-01-07T03:51:07;11.18;;;6.55;;
74223;SDS011;62585;49.706;18.216;2024-01-07T03:53:33;10.38;;;5.32;;
74223;SDS011;62585;49.706;18.216;2024-01-07T03:55:59;13.45;;;5.82;;
74223;SDS011;62585;49.706;18.216;2024-01-07T03:58:25;10.15;;;6.30;;
74223;SDS011;62585;49.706;18.216;2024-01-07T04:00:51;15.88;;;5.45;;
74223;SDS011;62585;49.706;18.216;2024-01-07T04:03:17;9.48;;;5.43;;
74223;SDS011;62585;49.706;18.216;2024-01-07T04:05:43;10.02;;;5.25;;
74223;SDS011;62585;49.706;18.216;2024-01-07T04:08:11;11.23;;;5.82;;
74223;SDS011;62585;49.706;18.216;2024-01-07T04:10:37;12.95;;;5.10;;
74223;SDS011;62585;49.706;18.216;2024-01-07T04:13:06;9.15;;;4.65;;
74223;SDS011;62585;49.706;18.216;2024-01-07T04:15:32;10.63;;;4.78;;
74223;SDS011;62585;49.706;18.216;2024-01-07T04:18:00;7.88;;;4.90;;
74223;SDS011;62585;49.706;18.216;2024-01-07T04:20:27;10.10;;;5.88;;
74223;SDS011;62585;49.706;18.216;2024-01-07T04:22:53;8.50;;;5.15;;
74223;SDS011;62585;49.706;18.216;2024-01-07T04:25:19;11.23;;;5.07;;
74223;SDS011;62585;49.706;18.216;2024-01-07T04:27:45;13.32;;;5.05;;
74223;SDS011;62585;49.706;18.216;2024-01-07T04:30:10;9.20;;;5.03;;
74223;SDS011;62585;49.706;18.216;2024-01-07T04:32:37;8.82;;;5.63;;
74223;SDS011;62585;49.706;18.216;2024-01-07T04:35:02;10.88;;;5.60;;
74223;SDS011;62585;49.706;18.216;2024-01-07T04:37:29;7.68;;;4.53;;
74223;SDS011;62585;49.706;18.216;2024-01-07T04:39:54;9.38;;;4.88;;
74223;SDS011;62585;49.706;18.216;2024-01-07T04:42:20;9.40;;;5.45;;
74223;SDS011;62585;49.706;18.216;2024-01-07T04:44:46;12.27;;;5.40;;
74223;SDS011;62585;49.706;18.216;2024-01-07T04:47:31;7.63;;;4.07;;
74223;SDS011;62585;49.706;18.216;2024-01-07T04:50:00;10.13;;;5.75;;
74223;SDS011;62585;49.706;18.216;2024-01-07T04:52:27;15.10;;;6.22;;
74223;SDS011;62585;49.706;18.216;2024-01-07T04:54:53;11.88;;;6.20;;
74223;SDS011;62585;49.706;18.216;2024-01-07T04:57:20;12.45;;;5.03;;
74223;SDS011;62585;49.706;18.216;2024-01-07T04:59:46;9.82;;;5.07;;
74223;SDS011;62585;49.706;18.216;2024-01-07T05:02:13;7.57;;;5.20;;
74223;SDS011;62585;49.706;18.216;2024-01-07T05:04:39;10.05;;;4.05;;
74223;SDS011;62585;49.706;18.216;2024-01-07T05:07:05;12.00;;;5.10;;
74223;SDS011;62585;49.706;18.216;2024-01-07T05:09:31;9.45;;;5.07;;
74223;SDS011;62585;49.706;18.216;2024-01-07T05:11:58;10.55;;;6.50;;
74223;SDS011;62585;49.706;18.216;2024-01-07T05:14:24;10.32;;;5.68;;
74223;SDS011;62585;49.706;18.216;2024-01-07T05:16:50;12.73;;;5.15;;
74223;SDS011;62585;49.706;18.216;2024-01-07T05:19:16;7.72;;;4.45;;
74223;SDS011;62585;49.706;18.216;2024-01-07T05:21:42;10.02;;;5.28;;
74223;SDS011;62585;49.706;18.216;2024-01-07T05:24:07;12.73;;;4.53;;
74223;SDS011;62585;49.706;18.216;2024-01-07T05:26:41;7.60;;;3.70;;
74223;SDS011;62585;49.706;18.216;2024-01-07T05:29:08;12.55;;;4.43;;
74223;SDS011;62585;49.706;18.216;2024-01-07T05:31:34;9.57;;;4.18;;
74223;SDS011;62585;49.706;18.216;2024-01-07T05:33:59;8.27;;;4.85;;
74223;SDS011;62585;49.706;18.216;2024-01-07T05:36:25;7.60;;;4.25;;
74223;SDS011;62585;49.706;18.216;2024-01-07T05:38:51;7.13;;;3.38;;
74223;SDS011;62585;49.706;18.216;2024-01-07T05:41:17;9.68;;;4.47;;
74223;SDS011;62585;49.706;18.216;2024-01-07T05:43:43;6.38;;;4.40;;
74223;SDS011;62585;49.706;18.216;2024-01-07T05:46:09;9.43;;;5.20;;
74223;SDS011;62585;49.706;18.216;2024-01-07T05:48:40;10.60;;;4.63;;
74223;SDS011;62585;49.706;18.216;2024-01-07T05:51:08;7.78;;;4.18;;
74223;SDS011;62585;49.706;18.216;2024-01-07T05:53:34;8.93;;;3.90;;
74223;SDS011;62585;49.706;18.216;2024-01-07T05:56:00;5.93;;;3.22;;
74223;SDS011;62585;49.706;18.216;2024-01-07T05:58:26;6.07;;;4.03;;
74223;SDS011;62585;49.706;18.216;2024-01-07T06:00:52;8.57;;;5.30;;
74223;SDS011;62585;49.706;18.216;2024-01-07T06:03:18;10.88;;;4.30;;
74223;SDS011;62585;49.706;18.216;2024-01-07T06:05:44;6.82;;;3.47;;
74223;SDS011;62585;49.706;18.216;2024-01-07T06:08:09;8.15;;;3.67;;
74223;SDS011;62585;49.706;18.216;2024-01-07T06:10:35;7.30;;;3.75;;
74223;SDS011;62585;49.706;18.216;2024-01-07T06:13:01;10.90;;;4.35;;
74223;SDS011;62585;49.706;18.216;2024-01-07T06:15:29;8.95;;;3.90;;
74223;SDS011;62585;49.706;18.216;2024-01-07T06:17:54;10.35;;;4.65;;
74223;SDS011;62585;49.706;18.216;2024-01-07T06:20:20;8.30;;;4.32;;
74223;SDS011;62585;49.706;18.216;2024-01-07T06:22:46;9.25;;;5.10;;
74223;SDS011;62585;49.706;18.216;2024-01-07T06:25:12;8.05;;;5.05;;
74223;SDS011;62585;49.706;18.216;2024-01-07T06:27:38;10.55;;;4.75;;
74223;SDS011;62585;49.706;18.216;2024-01-07T06:30:05;12.15;;;4.68;;
74223;SDS011;62585;49.706;18.216;2024-01-07T06:32:31;9.65;;;4.72;;
74223;SDS011;62585;49.706;18.216;2024-01-07T06:35:00;8.93;;;4.65;;
74223;SDS011;62585;49.706;18.216;2024-01-07T06:37:28;9.13;;;3.95;;
74223;SDS011;62585;49.706;18.216;2024-01-07T06:39:55;11.57;;;3.88;;
74223;SDS011;62585;49.706;18.216;2024-01-07T06:42:22;8.95;;;5.07;;
74223;SDS011;62585;49.706;18.216;2024-01-07T06:44:48;6.57;;;3.70;;
74223;SDS011;62585;49.706;18.216;2024-01-07T06:47:13;10.48;;;4.68;;
74223;SDS011;62585;49.706;18.216;2024-01-07T06:49:39;9.02;;;4.68;;
74223;SDS011;62585;49.706;18.216;2024-01-07T06:52:05;12.35;;;4.22;;
74223;SDS011;62585;49.706;18.216;2024-01-07T06:54:31;7.82;;;4.15;;
74223;SDS011;62585;49.706;18.216;2024-01-07T06:56:57;7.93;;;4.85;;
74223;SDS011;62585;49.706;18.216;2024-01-07T06:59:23;9.85;;;4.10;;
74223;SDS011;62585;49.706;18.216;2024-01-07T07:01:48;9.85;;;4.38;;
74223;SDS011;62585;49.706;18.216;2024-01-07T07:04:14;7.85;;;3.90;;
74223;SDS011;62585;49.706;18.216;2024-01-07T07:06:40;7.55;;;4.50;;
74223;SDS011;62585;49.706;18.216;2024-01-07T07:09:06;8.93;;;4.05;;
74223;SDS011;62585;49.706;18.216;2024-01-07T07:11:32;5.05;;;3.78;;
74223;SDS011;62585;49.706;18.216;2024-01-07T07:13:58;6.93;;;4.13;;
74223;SDS011;62585;49.706;18.216;2024-01-07T07:16:23;6.57;;;4.00;;
74223;SDS011;62585;49.706;18.216;2024-01-07T07:18:51;8.93;;;4.47;;
74223;SDS011;62585;49.706;18.216;2024-01-07T07:21:17;6.80;;;4.05;;
74223;SDS011;62585;49.706;18.216;2024-01-07T07:23:43;10.32;;;3.90;;
74223;SDS011;62585;49.706;18.216;2024-01-07T07:26:09;6.93;;;4.55;;
74223;SDS011;62585;49.706;18.216;2024-01-07T07:28:35;8.52;;;3.55;;
74223;SDS011;62585;49.706;18.216;2024-01-07T07:31:01;5.78;;;3.42;;
74223;SDS011;62585;49.706;18.216;2024-01-07T07:33:27;6.75;;;3.47;;
74223;SDS011;62585;49.706;18.216;2024-01-07T07:35:52;8.20;;;4.00;;
74223;SDS011;62585;49.706;18.216;2024-01-07T07:38:18;7.63;;;4.10;;
74223;SDS011;62585;49.706;18.216;2024-01-07T07:40:44;4.45;;;2.95;;
74223;SDS011;62585;49.706;18.216;2024-01-07T07:43:15;10.30;;;4.85;;
74223;SDS011;62585;49.706;18.216;2024-01-07T07:45:41;9.07;;;3.97;;
74223;SDS011;62585;49.706;18.216;2024-01-07T07:48:07;5.93;;;3.58;;
74223;SDS011;62585;49.706;18.216;2024-01-07T07:50:33;8.43;;;3.80;;
74223;SDS011;62585;49.706;18.216;2024-01-07T07:52:59;6.50;;;3.38;;
74223;SDS011;62585;49.706;18.216;2024-01-07T07:55:24;6.10;;;4.35;;
74223;SDS011;62585;49.706;18.216;2024-01-07T07:57:50;8.05;;;3.58;;
74223;SDS011;62585;49.706;18.216;2024-01-07T08:00:17;8.57;;;3.33;;
74223;SDS011;62585;49.706;18.216;2024-01-07T08:02:43;6.32;;;3.60;;
74223;SDS011;62585;49.706;18.216;2024-01-07T08:05:09;8.68;;;3.72;;
74223;SDS011;62585;49.706;18.216;2024-01-07T08:07:35;7.97;;;4.05;;
74223;SDS011;62585;49.706;18.216;2024-01-07T08:10:00;7.82;;;4.00;;
74223;SDS011;62585;49.706;18.216;2024-01-07T08:12:26;5.20;;;3.47;;
74223;SDS011;62585;49.706;18.216;2024-01-07T08:14:52;10.50;;;4.70;;
74223;SDS011;62585;49.706;18.216;2024-01-07T08:17:18;5.68;;;3.42;;
74223;SDS011;62585;49.706;18.216;2024-01-07T08:19:44;7.95;;;4.05;;
74223;SDS011;62585;49.706;18.216;2024-01-07T08:22:10;7.90;;;4.00;;
74223;SDS011;62585;49.706;18.216;2024-01-07T08:24:36;10.25;;;4.55;;
74223;SDS011;62585;49.706;18.216;2024-01-07T08:27:02;5.45;;;3.55;;
74223;SDS011;62585;49.706;18.216;2024-01-07T08:29:31;9.52;;;4.18;;
74223;SDS011;62585;49.706;18.216;2024-01-07T08:31:57;7.80;;;4.20;;
74223;SDS011;62585;49.706;18.216;2024-01-07T08:34:22;10.52;;;4.63;;
74223;SDS011;62585;49.706;18.216;2024-01-07T08:36:48;9.00;;;3.17;;
74223;SDS011;62585;49.706;18.216;2024-01-07T08:39:14;8.02;;;4.90;;
74223;SDS011;62585;49.706;18.216;2024-01-07T08:41:40;8.27;;;4.72;;
74223;SDS011;62585;49.706;18.216;2024-01-07T08:44:06;10.15;;;4.50;;
74223;SDS011;62585;49.706;18.216;2024-01-07T08:46:35;10.05;;;4.65;;
74223;SDS011;62585;49.706;18.216;2024-01-07T08:49:01;9.65;;;4.20;;
74223;SDS011;62585;49.706;18.216;2024-01-07T08:51:27;11.77;;;5.07;;
74223;SDS011;62585;49.706;18.216;2024-01-07T08:53:54;13.25;;;4.95;;
74223;SDS011;62585;49.706;18.216;2024-01-07T08:56:20;9.48;;;4.32;;
74223;SDS011;62585;49.706;18.216;2024-01-07T08:58:46;9.90;;;4.57;;
74223;SDS011;62585;49.706;18.216;2024-01-07T09:01:12;8.85;;;4.45;;
74223;SDS011;62585;49.706;18.216;2024-01-07T09:03:39;7.32;;;4.88;;
74223;SDS011;62585;49.706;18.216;2024-01-07T09:06:07;8.50;;;4.22;;
74223;SDS011;62585;49.706;18.216;2024-01-07T09:08:33;9.40;;;4.10;;
74223;SDS011;62585;49.706;18.216;2024-01-07T09:11:00;8.98;;;5.05;;
74223;SDS011;62585;49.706;18.216;2024-01-07T09:13:26;7.72;;;4.05;;
74223;SDS011;62585;49.706;18.216;2024-01-07T09:15:53;8.23;;;4.55;;
74223;SDS011;62585;49.706;18.216;2024-01-07T09:18:18;9.68;;;4.05;;
74223;SDS011;62585;49.706;18.216;2024-01-07T09:20:44;8.20;;;3.90;;
74223;SDS011;62585;49.706;18.216;2024-01-07T09:23:10;5.78;;;4.55;;
74223;SDS011;62585;49.706;18.216;2024-01-07T09:25:36;9.82;;;5.95;;
74223;SDS011;62585;49.706;18.216;2024-01-07T09:28:01;11.18;;;4.47;;
74223;SDS011;62585;49.706;18.216;2024-01-07T09:30:28;12.20;;;5.88;;
74223;SDS011;62585;49.706;18.216;2024-01-07T09:32:54;7.80;;;4.10;;
74223;SDS011;62585;49.706;18.216;2024-01-07T09:35:20;13.13;;;5.30;;
74223;SDS011;62585;49.706;18.216;2024-01-07T09:37:45;12.57;;;6.60;;
74223;SDS011;62585;49.706;18.216;2024-01-07T09:40:11;10.73;;;5.00;;
74223;SDS011;62585;49.706;18.216;2024-01-07T09:42:37;10.95;;;4.90;;
74223;SDS011;62585;49.706;18.216;2024-01-07T09:45:04;9.10;;;4.20;;
74223;SDS011;62585;49.706;18.216;2024-01-07T09:47:30;19.65;;;11.43;;
74223;SDS011;62585;49.706;18.216;2024-01-07T09:49:56;18.25;;;8.73;;
74223;SDS011;62585;49.706;18.216;2024-01-07T09:52:22;7.68;;;4.78;;
74223;SDS011;62585;49.706;18.216;2024-01-07T09:54:51;7.70;;;5.38;;
74223;SDS011;62585;49.706;18.216;2024-01-07T09:57:18;9.40;;;5.30;;
74223;SDS011;62585;49.706;18.216;2024-01-07T09:59:44;9.15;;;4.82;;
74223;SDS011;62585;49.706;18.216;2024-01-07T10:02:12;7.15;;;3.75;;
74223;SDS011;62585;49.706;18.216;2024-01-07T10:04:38;10.10;;;5.45;;
74223;SDS011;62585;49.706;18.216;2024-01-07T10:07:05;11.43;;;5.15;;
74223;SDS011;62585;49.706;18.216;2024-01-07T10:09:35;7.93;;;4.70;;
74223;SDS011;62585;49.706;18.216;2024-01-07T10:12:01;9.05;;;4.72;;
74223;SDS011;62585;49.706;18.216;2024-01-07T10:14:28;8.05;;;5.28;;
74223;SDS011;62585;49.706;18.216;2024-01-07T10:16:54;8.35;;;4.75;;
74223;SDS011;62585;49.706;18.216;2024-01-07T10:19:21;9.40;;;4.60;;
74223;SDS011;62585;49.706;18.216;2024-01-07T10:22:00;7.50;;;4.57;;
74223;SDS011;62585;49.706;18.216;2024-01-07T10:24:37;10.10;;;4.80;;
74223;SDS011;62585;49.706;18.216;2024-01-07T10:27:05;6.28;;;4.20;;
74223;SDS011;62585;49.706;18.216;2024-01-07T10:29:32;9.95;;;4.70;;
74223;SDS011;62585;49.706;18.216;2024-01-07T10:31:58;9.93;;;4.88;;
74223;SDS011;62585;49.706;18.216;2024-01-07T10:34:28;9.77;;;4.88;;
74223;SDS011;62585;49.706;18.216;2024-01-07T10:36:56;10.02;;;4.60;;
74223;SDS011;62585;49.706;18.216;2024-01-07T10:39:24;9.10;;;4.38;;
74223;SDS011;62585;49.706;18.216;2024-01-07T10:41:51;13.05;;;5.18;;
74223;SDS011;62585;49.706;18.216;2024-01-07T10:44:26;10.57;;;4.78;;
74223;SDS011;62585;49.706;18.216;2024-01-07T10:46:56;5.35;;;4.20;;
74223;SDS011;62585;49.706;18.216;2024-01-07T10:49:23;7.63;;;4.90;;
74223;SDS011;62585;49.706;18.216;2024-01-07T10:52:04;14.70;;;5.18;;
74223;SDS011;62585;49.706;18.216;2024-01-07T10:54:32;10.05;;;4.35;;
74223;SDS011;62585;49.706;18.216;2024-01-07T10:56:59;11.02;;;4.68;;
74223;SDS011;62585;49.706;18.216;2024-01-07T10:59:33;10.65;;;4.40;;
74223;SDS011;62585;49.706;18.216;2024-01-07T11:01:59;13.02;;;5.00;;
74223;SDS011;62585;49.706;18.216;2024-01-07T11:07:39;7.95;;;4.78;;
74223;SDS011;62585;49.706;18.216;2024-01-07T11:13:02;10.68;;;5.05;;
74223;SDS011;62585;49.706;18.216;2024-01-07T11:18:37;11.30;;;4.40;;
74223;SDS011;62585;49.706;18.216;2024-01-07T11:21:05;9.82;;;4.15;;
74223;SDS011;62585;49.706;18.216;2024-01-07T11:23:33;8.43;;;5.00;;
74223;SDS011;62585;49.706;18.216;2024-01-07T11:26:06;10.32;;;4.57;;
74223;SDS011;62585;49.706;18.216;2024-01-07T11:31:25;6.15;;;3.78;;
74223;SDS011;62585;49.706;18.216;2024-01-07T11:34:07;11.25;;;5.07;;
74223;SDS011;62585;49.706;18.216;2024-01-07T11:36:35;8.93;;;4.05;;
74223;SDS011;62585;49.706;18.216;2024-01-07T11:39:01;6.45;;;3.97;;
74223;SDS011;62585;49.706;18.216;2024-01-07T11:43:57;9.50;;;4.57;;
74223;SDS011;62585;49.706;18.216;2024-01-07T11:46:28;7.90;;;4.80;;
74223;SDS011;62585;49.706;18.216;2024-01-07T11:48:58;10.82;;;5.05;;
74223;SDS011;62585;49.706;18.216;2024-01-07T11:51:28;9.98;;;4.90;;
74223;SDS011;62585;49.706;18.216;2024-01-07T11:53:56;6.38;;;4.57;;
74223;SDS011;62585;49.706;18.216;2024-01-07T11:56:26;8.90;;;5.30;;
74223;SDS011;62585;49.706;18.216;2024-01-07T11:58:53;7.75;;;4.50;;
74223;SDS011;62585;49.706;18.216;2024-01-07T12:01:19;6.93;;;4.07;;
74223;SDS011;62585;49.706;18.216;2024-01-07T12:03:45;9.75;;;4.57;;
74223;SDS011;62585;49.706;18.216;2024-01-07T12:06:12;10.07;;;5.78;;
74223;SDS011;62585;49.706;18.216;2024-01-07T12:08:42;10.73;;;4.80;;
74223;SDS011;62585;49.706;18.216;2024-01-07T12:11:10;10.90;;;4.22;;
74223;SDS011;62585;49.706;18.216;2024-01-07T12:13:37;9.48;;;4.78;;
74223;SDS011;62585;49.706;18.216;2024-01-07T12:16:07;14.63;;;6.45;;
74223;SDS011;62585;49.706;18.216;2024-01-07T12:18:36;14.05;;;4.93;;
74223;SDS011;62585;49.706;18.216;2024-01-07T12:21:03;12.02;;;4.53;;
74223;SDS011;62585;49.706;18.216;2024-01-07T12:23:33;7.50;;;4.53;;
74223;SDS011;62585;49.706;18.216;2024-01-07T12:26:09;9.23;;;4.80;;
74223;SDS011;62585;49.706;18.216;2024-01-07T12:28:36;8.82;;;4.40;;
74223;SDS011;62585;49.706;18.216;2024-01-07T12:31:03;10.20;;;6.00;;
74223;SDS011;62585;49.706;18.216;2024-01-07T12:33:31;8.13;;;4.68;;
74223;SDS011;62585;49.706;18.216;2024-01-07T12:36:00;13.40;;;5.38;;
74223;SDS011;62585;49.706;18.216;2024-01-07T12:38:27;10.27;;;5.78;;
74223;SDS011;62585;49.706;18.216;2024-01-07T12:40:53;12.60;;;6.35;;
74223;SDS011;62585;49.706;18.216;2024-01-07T12:43:19;8.85;;;4.88;;
74223;SDS011;62585;49.706;18.216;2024-01-07T12:45:47;14.90;;;5.50;;
74223;SDS011;62585;49.706;18.216;2024-01-07T12:48:13;11.40;;;5.28;;
74223;SDS011;62585;49.706;18.216;2024-01-07T12:50:38;7.53;;;4.53;;
74223;SDS011;62585;49.706;18.216;2024-01-07T12:53:04;12.80;;;6.68;;
74223;SDS011;62585;49.706;18.216;2024-01-07T12:55:31;8.90;;;5.88;;
74223;SDS011;62585;49.706;18.216;2024-01-07T12:57:57;8.35;;;4.97;;
74223;SDS011;62585;49.706;18.216;2024-01-07T13:00:24;14.70;;;5.80;;
74223;SDS011;62585;49.706;18.216;2024-01-07T13:05:17;6.88;;;3.45;;
74223;SDS011;62585;49.706;18.216;2024-01-07T13:07:44;13.20;;;5.43;;
74223;SDS011;62585;49.706;18.216;2024-01-07T13:10:11;11.85;;;7.55;;
74223;SDS011;62585;49.706;18.216;2024-01-07T13:12:48;9.18;;;5.47;;
74223;SDS011;62585;49.706;18.216;2024-01-07T13:15:14;16.52;;;6.32;;
74223;SDS011;62585;49.706;18.216;2024-01-07T13:17:40;14.73;;;6.45;;
74223;SDS011;62585;49.706;18.216;2024-01-07T13:20:06;11.30;;;5.93;;
74223;SDS011;62585;49.706;18.216;2024-01-07T13:22:40;13.68;;;6.47;;
74223;SDS011;62585;49.706;18.216;2024-01-07T13:25:06;12.85;;;5.88;;
74223;SDS011;62585;49.706;18.216;2024-01-07T13:27:32;11.63;;;6.05;;
74223;SDS011;62585;49.706;18.216;2024-01-07T13:29:58;8.00;;;4.35;;
74223;SDS011;62585;49.706;18.216;2024-01-07T13:32:24;12.20;;;6.50;;
74223;SDS011;62585;49.706;18.216;2024-01-07T13:34:50;12.90;;;7.28;;
74223;SDS011;62585;49.706;18.216;2024-01-07T13:37:16;13.18;;;6.95;;
74223;SDS011;62585;49.706;18.216;2024-01-07T13:39:42;17.35;;;8.13;;
74223;SDS011;62585;49.706;18.216;2024-01-07T13:42:07;13.30;;;6.90;;
74223;SDS011;62585;49.706;18.216;2024-01-07T13:44:33;10.80;;;7.00;;
74223;SDS011;62585;49.706;18.216;2024-01-07T13:46:59;17.08;;;7.43;;
74223;SDS011;62585;49.706;18.216;2024-01-07T13:49:27;12.30;;;7.35;;
74223;SDS011;62585;49.706;18.216;2024-01-07T13:51:53;12.45;;;7.43;;
74223;SDS011;62585;49.706;18.216;2024-01-07T13:54:20;47.50;;;18.02;;
74223;SDS011;62585;49.706;18.216;2024-01-07T13:56:47;65.38;;;21.10;;
74223;SDS011;62585;49.706;18.216;2024-01-07T13:59:12;79.30;;;31.75;;
74223;SDS011;62585;49.706;18.216;2024-01-07T14:01:38;32.92;;;16.25;;
74223;SDS011;62585;49.706;18.216;2024-01-07T14:04:08;12.43;;;6.95;;
74223;SDS011;62585;49.706;18.216;2024-01-07T14:06:34;12.65;;;6.40;;
74223;SDS011;62585;49.706;18.216;2024-01-07T14:09:00;13.85;;;6.78;;
74223;SDS011;62585;49.706;18.216;2024-01-07T14:11:27;10.98;;;4.97;;
74223;SDS011;62585;49.706;18.216;2024-01-07T14:13:53;10.95;;;6.60;;
74223;SDS011;62585;49.706;18.216;2024-01-07T14:16:19;14.23;;;7.07;;
74223;SDS011;62585;49.706;18.216;2024-01-07T14:18:45;12.60;;;6.93;;
74223;SDS011;62585;49.706;18.216;2024-01-07T14:21:10;15.45;;;6.45;;
74223;SDS011;62585;49.706;18.216;2024-01-07T14:23:36;18.20;;;7.30;;
74223;SDS011;62585;49.706;18.216;2024-01-07T14:26:02;15.15;;;6.63;;
74223;SDS011;62585;49.706;18.216;2024-01-07T14:28:29;16.00;;;8.00;;
74223;SDS011;62585;49.706;18.216;2024-01-07T14:30:54;15.48;;;8.20;;
74223;SDS011;62585;49.706;18.216;2024-01-07T14:33:20;13.23;;;6.68;;
74223;SDS011;62585;49.706;18.216;2024-01-07T14:35:46;13.32;;;7.20;;
74223;SDS011;62585;49.706;18.216;2024-01-07T14:38:12;12.77;;;7.00;;
74223;SDS011;62585;49.706;18.216;2024-01-07T14:40:38;14.35;;;8.00;;
74223;SDS011;62585;49.706;18.216;2024-01-07T14:43:06;13.45;;;7.25;;